createdAt,value
2022-09-07T00:01:19.380Z,9.57
2022-09-07T00:03:49.209Z,9.67
2022-09-07T00:06:17.745Z,9.40
2022-09-07T00:08:46.032Z,9.73
2022-09-07T00:11:17.695Z,10.23
2022-09-07T00:13:48.673Z,9.80
2022-09-07T00:16:21.648Z,9.80
2022-09-07T00:18:51.901Z,9.67
2022-09-07T00:21:20.396Z,9.50
2022-09-07T00:23:50.431Z,9.70
2022-09-07T00:26:21.725Z,9.30
2022-09-07T00:28:51.057Z,9.80
2022-09-07T00:31:22.318Z,9.50
2022-09-07T00:33:54.170Z,9.60
2022-09-07T00:36:24.165Z,9.80
2022-09-07T00:38:52.807Z,9.50
2022-09-07T00:41:23.105Z,9.67
2022-09-07T00:43:53.859Z,9.40
2022-09-07T00:46:24.375Z,9.50
2022-09-07T00:49:01.766Z,9.63
2022-09-07T00:51:35.656Z,9.70
2022-09-07T00:54:10.243Z,9.30
2022-09-07T00:56:42.607Z,9.40
2022-09-07T00:59:12.197Z,9.70
2022-09-07T01:01:40.824Z,9.60
2022-09-07T01:04:10.998Z,9.30
2022-09-07T01:06:42.506Z,9.33
2022-09-07T01:09:14.993Z,9.43
2022-09-07T01:11:45.775Z,9.63
2022-09-07T01:14:16.728Z,9.67
2022-09-07T01:17:02.835Z,9.20
2022-09-07T01:20:24.813Z,9.17
2022-09-07T01:23:41.001Z,9.20
2022-09-07T01:26:51.816Z,9.27
2022-09-07T01:29:30.348Z,9.27
2022-09-07T01:32:10.988Z,9.23
2022-09-07T01:34:39.761Z,9.30
2022-09-07T01:37:21.884Z,9.10
2022-09-07T01:39:59.176Z,9.60
2022-09-07T01:42:33.596Z,9.50
2022-09-07T01:45:11.382Z,9.33
2022-09-07T01:47:44.884Z,9.40
2022-09-07T01:50:21.838Z,9.20
2022-09-07T01:52:55.496Z,9.60
2022-09-07T01:55:30.789Z,9.43
2022-09-07T01:58:07.445Z,9.67
2022-09-07T02:00:43.310Z,9.20
2022-09-07T02:03:16.887Z,9.40
2022-09-07T02:05:52.955Z,9.30
2022-09-07T02:08:28.689Z,9.60
2022-09-07T02:11:02.052Z,9.33
2022-09-07T02:13:36.485Z,9.10
2022-09-07T02:16:12.240Z,9.13
2022-09-07T02:18:46.055Z,9.37
2022-09-07T02:21:19.095Z,9.33
2022-09-07T02:23:52.642Z,9.27
2022-09-07T02:26:23.957Z,9.40
2022-09-07T02:28:53.205Z,9.40
2022-09-07T02:31:23.865Z,9.10
2022-09-07T02:33:52.813Z,9.20
2022-09-07T02:36:30.561Z,9.37
2022-09-07T02:38:58.971Z,9.43
2022-09-07T02:41:34.216Z,9.23
2022-09-07T02:44:08.340Z,9.60
2022-09-07T02:46:54.289Z,9.60
2022-09-07T02:49:53.803Z,9.53
2022-09-07T02:52:32.484Z,9.10
2022-09-07T02:55:12.680Z,9.50
2022-09-07T02:57:51.777Z,9.37
2022-09-07T03:00:47.163Z,9.30
2022-09-07T03:03:24.488Z,9.10
2022-09-07T03:05:59.348Z,9.40
2022-09-07T03:08:33.637Z,9.50
2022-09-07T03:11:02.599Z,9.33
2022-09-07T03:13:31.620Z,9.50
2022-09-07T03:16:00.269Z,9.40
2022-09-07T03:18:30.440Z,9.30
2022-09-07T03:20:58.970Z,9.40
2022-09-07T03:23:27.274Z,9.60
2022-09-07T03:25:55.649Z,9.60
2022-09-07T03:28:23.934Z,9.40
2022-09-07T03:30:52.318Z,9.40
2022-09-07T03:33:20.712Z,9.40
2022-09-07T03:36:00.768Z,9.27
2022-09-07T03:38:29.281Z,9.20
2022-09-07T03:41:01.882Z,9.30
2022-09-07T03:43:31.054Z,9.63
2022-09-07T03:46:00.210Z,9.47
2022-09-07T03:48:28.873Z,9.10
2022-09-07T03:51:00.641Z,10.00
2022-09-07T03:53:31.051Z,9.40
2022-09-07T03:56:01.608Z,9.63
2022-09-07T03:58:31.386Z,9.20
2022-09-07T04:01:05.886Z,9.50
2022-09-07T04:03:34.546Z,9.10
2022-09-07T04:06:05.397Z,9.20
2022-09-07T04:08:37.170Z,9.60
2022-09-07T04:11:08.291Z,9.10
2022-09-07T04:13:38.118Z,9.30
2022-09-07T04:16:14.799Z,9.70
2022-09-07T04:18:43.208Z,9.33
2022-09-07T04:21:13.865Z,9.20
2022-09-07T04:23:43.747Z,9.30
2022-09-07T04:26:16.696Z,9.20
2022-09-07T04:28:45.651Z,9.40
2022-09-07T04:31:15.968Z,9.20
2022-09-07T04:33:45.268Z,9.83
2022-09-07T04:36:16.909Z,9.50
2022-09-07T04:38:45.477Z,9.70
2022-09-07T04:41:17.678Z,9.40
2022-09-07T04:43:47.700Z,9.77
2022-09-07T04:46:20.613Z,9.60
2022-09-07T04:48:49.834Z,9.43
2022-09-07T04:51:22.189Z,9.47
2022-09-07T04:53:52.235Z,9.97
2022-09-07T04:56:23.260Z,9.83
2022-09-07T04:58:52.596Z,9.63
2022-09-07T05:01:23.470Z,9.40
2022-09-07T05:03:52.252Z,9.73
2022-09-07T05:06:23.656Z,9.50
2022-09-07T05:08:54.850Z,9.33
2022-09-07T05:11:29.080Z,9.50
2022-09-07T05:13:58.199Z,9.83
2022-09-07T05:16:27.255Z,9.83
2022-09-07T05:18:58.052Z,9.07
2022-09-07T05:21:30.058Z,9.40
2022-09-07T05:24:00.701Z,9.30
2022-09-07T05:26:31.492Z,9.43
2022-09-07T05:31:51.003Z,9.60
2022-09-07T05:34:34.765Z,9.80
2022-09-07T05:37:04.627Z,9.40
2022-09-07T05:39:33.022Z,9.53
2022-09-07T05:42:01.387Z,9.60
2022-09-07T05:44:47.167Z,9.40
2022-09-07T05:47:15.801Z,9.30
2022-09-07T05:49:44.203Z,9.50
2022-09-07T05:52:13.909Z,9.60
2022-09-07T05:54:42.255Z,9.30
2022-09-07T05:57:12.929Z,9.23
2022-09-07T05:59:41.560Z,9.60
2022-09-07T06:02:15.264Z,9.23
2022-09-07T06:04:44.109Z,9.50
2022-09-07T06:07:23.192Z,8.87
2022-09-07T06:12:41.713Z,9.30
2022-09-07T06:15:12.196Z,9.60
2022-09-07T06:17:40.645Z,9.87
2022-09-07T06:20:10.493Z,9.60
2022-09-07T06:22:40.248Z,9.50
2022-09-07T06:25:09.589Z,9.27
2022-09-07T06:27:38.090Z,9.80
2022-09-07T06:30:08.502Z,9.80
2022-09-07T06:35:11.389Z,9.83
2022-09-07T06:37:41.847Z,9.87
2022-09-07T06:40:12.050Z,9.80
2022-09-07T06:42:40.681Z,10.10
2022-09-07T06:45:11.875Z,10.13
2022-09-07T06:47:41.289Z,9.70
2022-09-07T06:50:12.914Z,9.70
2022-09-07T06:55:31.268Z,10.07
2022-09-07T06:57:59.699Z,10.30
2022-09-07T07:00:27.989Z,9.97
2022-09-07T07:02:56.398Z,9.93
2022-09-07T07:05:24.816Z,9.57
2022-09-07T07:07:56.380Z,10.27
2022-09-07T07:10:25.383Z,10.13
2022-09-07T07:12:57.664Z,10.23
2022-09-07T07:15:28.822Z,9.70
2022-09-07T07:18:02.607Z,9.90
2022-09-07T07:20:43.312Z,9.83
2022-09-07T07:23:13.436Z,9.80
2022-09-07T07:25:41.767Z,9.70
2022-09-07T07:31:00.732Z,10.10
2022-09-07T07:33:32.365Z,10.10
2022-09-07T07:36:20.009Z,10.30
2022-09-07T07:44:20.331Z,10.00
2022-09-07T07:46:50.140Z,10.10
2022-09-07T07:49:18.687Z,10.43
2022-09-07T07:54:37.794Z,10.10
2022-09-07T07:57:06.842Z,10.23
2022-09-07T07:59:35.358Z,10.23
2022-09-07T08:02:05.296Z,9.90
2022-09-07T08:04:35.134Z,10.40
2022-09-07T08:07:09.630Z,10.30
2022-09-07T08:09:41.648Z,10.00
2022-09-07T08:12:12.312Z,9.90
2022-09-07T08:14:41.977Z,10.40
2022-09-07T08:17:11.381Z,10.00
2022-09-07T08:19:39.784Z,10.30
2022-09-07T08:22:08.889Z,10.37
2022-09-07T08:24:37.277Z,10.00
2022-09-07T08:27:07.272Z,9.97
2022-09-07T08:29:35.758Z,10.20
2022-09-07T08:32:06.879Z,10.03
2022-09-07T08:34:38.183Z,10.37
2022-09-07T08:37:06.589Z,10.20
2022-09-07T08:39:35.933Z,10.30
2022-09-07T08:42:25.526Z,9.90
2022-09-07T08:45:09.687Z,10.03
2022-09-07T08:47:42.657Z,10.20
2022-09-07T08:50:19.637Z,10.00
2022-09-07T08:52:53.132Z,9.90
2022-09-07T08:55:28.695Z,9.80
2022-09-07T08:58:14.542Z,9.80
2022-09-07T09:06:48.625Z,9.80
2022-09-07T09:09:29.486Z,10.20
2022-09-07T09:12:14.071Z,9.90
2022-09-07T09:15:04.255Z,10.00
2022-09-07T09:17:38.933Z,10.00
2022-09-07T09:20:21.724Z,10.10
2022-09-07T09:22:51.387Z,10.20
2022-09-07T09:25:22.591Z,10.50
2022-09-07T09:27:51.560Z,10.00
2022-09-07T09:30:22.249Z,10.50
2022-09-07T09:32:54.738Z,10.23
2022-09-07T09:35:30.176Z,10.10
2022-09-07T09:37:58.685Z,9.73
2022-09-07T09:40:30.645Z,10.40
2022-09-07T09:43:05.869Z,10.30
2022-09-07T09:48:34.796Z,10.07
2022-09-07T09:54:00.922Z,10.20
2022-09-07T09:56:44.301Z,10.40
2022-09-07T10:05:31.650Z,10.40
2022-09-07T10:08:00.143Z,10.70
2022-09-07T10:10:31.468Z,10.00
2022-09-07T10:13:00.641Z,10.20
2022-09-07T10:15:39.961Z,10.90
2022-09-07T10:18:18.853Z,10.70
2022-09-07T10:20:48.898Z,10.77
2022-09-07T10:23:24.167Z,11.30
2022-09-07T10:25:52.548Z,10.40
2022-09-07T10:28:23.936Z,11.50
2022-09-07T10:31:15.155Z,11.37
2022-09-07T10:36:49.981Z,10.43
2022-09-07T10:39:24.728Z,11.00
2022-09-07T10:42:03.368Z,10.83
2022-09-07T10:44:49.716Z,10.90
2022-09-07T10:47:30.704Z,11.13
2022-09-07T10:50:24.928Z,10.90
2022-09-07T10:53:36.666Z,11.10
2022-09-07T10:56:06.485Z,10.83
2022-09-07T10:59:08.639Z,10.80
2022-09-07T11:01:51.354Z,10.00
2022-09-07T11:04:39.896Z,10.37
2022-09-07T11:07:28.559Z,10.50
2022-09-07T11:10:04.380Z,10.50
2022-09-07T11:12:36.898Z,10.57
2022-09-07T11:15:18.304Z,10.70
2022-09-07T11:17:53.016Z,10.27
2022-09-07T11:20:28.828Z,10.33
2022-09-07T11:23:15.523Z,10.00
2022-09-07T11:25:53.824Z,9.73
2022-09-07T11:28:27.437Z,9.80
2022-09-07T11:31:00.753Z,9.80
2022-09-07T11:33:34.944Z,9.90
2022-09-07T11:36:12.272Z,10.50
2022-09-07T11:38:47.993Z,9.80
2022-09-07T11:41:25.659Z,9.60
2022-09-07T11:44:06.576Z,10.23
2022-09-07T11:46:42.667Z,9.03
2022-09-07T11:49:19.205Z,8.70
2022-09-07T11:51:54.089Z,8.60
2022-09-07T11:54:37.924Z,9.03
2022-09-07T11:57:28.593Z,8.90
2022-09-07T12:00:05.943Z,8.90
2022-09-07T12:03:03.057Z,8.80
2022-09-07T12:06:19.733Z,8.67
2022-09-07T12:09:27.749Z,8.60
2022-09-07T12:12:29.469Z,8.37
2022-09-07T12:15:15.324Z,8.70
2022-09-07T12:18:00.904Z,8.43
2022-09-07T12:20:40.515Z,8.80
2022-09-07T12:23:25.629Z,8.63
2022-09-07T12:25:54.737Z,8.60
2022-09-07T12:29:07.737Z,9.13
2022-09-07T12:31:57.802Z,8.30
2022-09-07T12:34:55.567Z,8.67
2022-09-07T12:37:43.463Z,8.50
2022-09-07T12:40:49.217Z,8.47
2022-09-07T12:43:53.595Z,8.30
2022-09-07T12:46:46.793Z,8.40
2022-09-07T12:49:35.534Z,8.10
2022-09-07T12:52:17.214Z,8.17
2022-09-07T12:55:16.314Z,8.47
2022-09-07T12:57:53.587Z,8.20
2022-09-07T13:00:25.208Z,8.40
2022-09-07T13:07:04.329Z,8.63
2022-09-07T13:09:36.779Z,8.20
2022-09-07T13:15:51.038Z,8.60
2022-09-07T13:18:43.785Z,8.50
2022-09-07T13:21:35.796Z,8.70
2022-09-07T13:24:46.109Z,8.50
2022-09-07T13:27:46.810Z,8.10
2022-09-07T13:30:46.901Z,8.40
2022-09-07T13:33:51.044Z,8.83
2022-09-07T13:36:25.674Z,8.50
2022-09-07T13:38:55.461Z,8.50
2022-09-07T13:41:28.404Z,8.47
2022-09-07T13:44:01.387Z,8.60
2022-09-07T13:46:48.975Z,8.20
2022-09-07T13:49:38.728Z,8.60
2022-09-07T13:52:16.112Z,8.40
2022-09-07T13:55:07.728Z,8.43
2022-09-07T13:57:48.481Z,8.43
2022-09-07T14:00:18.102Z,8.47
2022-09-07T14:02:56.489Z,8.73
2022-09-07T14:05:27.359Z,8.70
2022-09-07T14:07:55.681Z,8.60
2022-09-07T14:10:26.562Z,8.70
2022-09-07T14:13:06.318Z,8.50
2022-09-07T14:15:40.678Z,8.70
2022-09-07T14:18:14.557Z,8.40
2022-09-07T14:20:47.955Z,8.57
2022-09-07T14:23:24.960Z,8.50
2022-09-07T14:26:16.371Z,8.10
2022-09-07T14:28:47.736Z,8.40
2022-09-07T14:31:19.724Z,8.20
2022-09-07T14:33:52.770Z,8.20
2022-09-07T14:36:44.329Z,8.40
2022-09-07T14:39:15.095Z,8.60
2022-09-07T14:41:43.986Z,8.30
2022-09-07T14:44:32.441Z,8.40
2022-09-07T14:47:06.417Z,8.70
2022-09-07T14:49:34.975Z,8.33
2022-09-07T14:52:05.462Z,8.23
2022-09-07T14:54:35.442Z,8.17
2022-09-07T14:57:20.934Z,8.73
2022-09-07T14:59:49.832Z,9.00
2022-09-07T15:02:36.888Z,9.37
2022-09-07T15:05:26.256Z,9.47
2022-09-07T15:07:59.244Z,10.00
2022-09-07T15:10:32.689Z,10.90
2022-09-07T15:13:02.584Z,11.17
2022-09-07T15:15:33.549Z,10.90
2022-09-07T15:18:08.744Z,11.40
2022-09-07T15:20:41.048Z,11.20
2022-09-07T15:23:15.867Z,12.20
2022-09-07T15:25:50.679Z,13.13
2022-09-07T15:34:10.070Z,12.67
2022-09-07T15:36:40.360Z,13.00
2022-09-07T15:39:17.680Z,13.50
2022-09-07T15:41:46.113Z,13.70
2022-09-07T15:44:15.124Z,13.60
2022-09-07T15:47:43.194Z,12.90
2022-09-07T15:49:31.974Z,13.30
2022-09-07T15:52:07.658Z,13.30
2022-09-07T15:54:39.797Z,13.87
2022-09-07T15:59:56.752Z,12.53
2022-09-07T16:05:33.584Z,12.43
2022-09-07T16:10:54.233Z,13.03
2022-09-07T16:13:24.238Z,12.30
2022-09-07T16:15:53.020Z,12.23
2022-09-07T16:18:21.424Z,11.40
2022-09-07T16:20:52.587Z,11.87
2022-09-07T16:23:21.540Z,12.10
2022-09-07T16:25:59.943Z,11.63
2022-09-07T16:28:28.983Z,11.30
2022-09-07T16:30:57.683Z,10.30
2022-09-07T16:33:34.399Z,11.03
2022-09-07T16:36:09.311Z,11.60
2022-09-07T16:38:45.516Z,10.50
2022-09-07T16:41:18.057Z,10.60
2022-09-07T16:43:46.490Z,10.30
2022-09-07T16:46:16.863Z,10.00
2022-09-07T16:48:45.815Z,10.30
2022-09-07T16:51:16.460Z,9.90
2022-09-07T16:53:44.825Z,9.97
2022-09-07T16:56:17.957Z,10.53
2022-09-07T16:59:32.127Z,10.07
2022-09-07T17:02:00.414Z,9.90
2022-09-07T17:04:29.061Z,9.70
2022-09-07T17:06:57.713Z,10.20
2022-09-07T17:09:26.810Z,10.70
2022-09-07T17:11:56.556Z,10.40
2022-09-07T17:14:24.898Z,9.87
2022-09-07T17:16:53.222Z,10.03
2022-09-07T17:19:30.034Z,9.97
2022-09-07T17:21:59.788Z,10.50
2022-09-07T17:24:28.310Z,10.70
2022-09-07T17:26:59.455Z,10.13
2022-09-07T17:29:30.480Z,10.43
2022-09-07T17:34:47.625Z,9.50
2022-09-07T17:37:15.892Z,9.70
2022-09-07T17:39:44.557Z,9.53
2022-09-07T17:42:14.487Z,9.83
2022-09-07T17:44:42.754Z,9.97
2022-09-07T17:47:11.165Z,9.97
2022-09-07T17:49:59.456Z,9.27
2022-09-07T17:52:28.649Z,9.70
2022-09-07T17:54:57.906Z,9.47
2022-09-07T17:57:27.484Z,9.63
2022-09-07T18:00:12.415Z,9.27
2022-09-07T18:02:41.031Z,9.33
2022-09-07T18:05:10.351Z,9.23
2022-09-07T18:07:38.563Z,9.20
2022-09-07T18:10:08.108Z,8.87
2022-09-07T18:12:37.756Z,9.17
2022-09-07T18:15:07.337Z,8.70
2022-09-07T18:17:35.639Z,9.10
2022-09-07T18:20:04.500Z,8.93
2022-09-07T18:22:34.695Z,8.70
2022-09-07T18:25:03.582Z,8.60
2022-09-07T18:27:32.116Z,8.60
2022-09-07T18:30:01.735Z,8.43
2022-09-07T18:32:31.725Z,8.43
2022-09-07T18:35:00.050Z,8.80
2022-09-07T18:37:31.507Z,8.60
2022-09-07T18:40:00.004Z,8.57
2022-09-07T18:42:29.082Z,9.00
2022-09-07T18:47:47.793Z,8.90
2022-09-07T18:50:16.974Z,8.93
2022-09-07T18:52:53.228Z,8.50
2022-09-07T18:55:21.956Z,8.83
2022-09-07T18:57:50.254Z,8.80
2022-09-07T19:00:18.736Z,8.60
2022-09-07T19:02:52.295Z,9.00
2022-09-07T19:08:09.146Z,8.50
2022-09-07T19:10:38.463Z,8.50
2022-09-07T19:13:06.776Z,8.50
2022-09-07T19:15:37.273Z,8.60
2022-09-07T19:18:08.750Z,8.50
2022-09-07T19:20:38.696Z,8.67
2022-09-07T19:23:07.580Z,8.60
2022-09-07T19:25:40.891Z,8.60
2022-09-07T19:28:09.405Z,8.60
2022-09-07T19:30:37.700Z,8.40
2022-09-07T19:33:10.038Z,8.90
2022-09-07T19:35:38.571Z,8.50
2022-09-07T19:38:06.962Z,8.40
2022-09-07T19:40:35.404Z,8.43
2022-09-07T19:43:04.225Z,8.40
2022-09-07T19:45:33.046Z,8.80
2022-09-07T19:48:01.676Z,8.77
2022-09-07T19:50:33.047Z,8.40
2022-09-07T19:53:01.310Z,8.40
2022-09-07T19:55:29.646Z,8.57
2022-09-07T19:57:57.966Z,8.40
2022-09-07T20:00:26.285Z,8.60
2022-09-07T20:02:54.962Z,8.60
2022-09-07T20:05:24.238Z,8.60
2022-09-07T20:07:53.787Z,8.50
2022-09-07T20:10:22.244Z,8.80
2022-09-07T20:12:51.031Z,8.40
2022-09-07T20:15:19.280Z,8.80
2022-09-07T20:17:48.076Z,8.40
2022-09-07T20:20:16.606Z,8.80
2022-09-07T20:22:44.848Z,8.73
2022-09-07T20:25:14.768Z,8.87
2022-09-07T20:27:43.119Z,8.70
2022-09-07T20:30:13.088Z,8.67
2022-09-07T20:32:41.388Z,8.60
2022-09-07T20:35:10.836Z,9.20
2022-09-07T20:37:39.087Z,8.50
2022-09-07T20:40:09.275Z,8.50
2022-09-07T20:42:39.171Z,8.93
2022-09-07T20:45:09.170Z,8.80
2022-09-07T20:47:37.422Z,8.63
2022-09-07T20:50:07.100Z,8.83
2022-09-07T20:52:35.405Z,9.20
2022-09-07T20:55:03.815Z,9.03
2022-09-07T20:57:32.082Z,9.20
2022-09-07T21:00:01.784Z,9.30
2022-09-07T21:02:30.191Z,9.00
2022-09-07T21:04:58.886Z,9.10
2022-09-07T21:07:27.187Z,9.20
2022-09-07T21:09:55.459Z,9.20
2022-09-07T21:12:23.692Z,8.87
2022-09-07T21:14:52.040Z,8.90
2022-09-07T21:17:21.628Z,8.83
2022-09-07T21:19:49.910Z,8.90
2022-09-07T21:22:18.249Z,8.90
2022-09-07T21:24:46.611Z,9.27
2022-09-07T21:27:14.809Z,8.70
2022-09-07T21:29:43.131Z,8.90
2022-09-07T21:32:11.377Z,8.80
2022-09-07T21:34:41.005Z,8.60
2022-09-07T21:37:09.323Z,8.50
2022-09-07T21:39:37.619Z,8.83
2022-09-07T21:42:06.067Z,8.80
2022-09-07T21:44:35.339Z,8.50
2022-09-07T21:47:03.855Z,8.90
2022-09-07T21:49:32.162Z,8.43
2022-09-07T21:52:02.737Z,8.80
2022-09-07T21:54:31.224Z,8.40
2022-09-07T21:56:59.650Z,8.67
2022-09-07T21:59:27.981Z,8.40
2022-09-07T22:01:57.457Z,8.50
2022-09-07T22:04:25.763Z,8.80
2022-09-07T22:06:54.303Z,8.30
2022-09-07T22:09:23.989Z,8.50
2022-09-07T22:11:53.051Z,8.83
2022-09-07T22:14:21.683Z,8.60
2022-09-07T22:16:49.937Z,8.40
2022-09-07T22:19:18.332Z,8.60
2022-09-07T22:21:47.222Z,8.90
2022-09-07T22:24:16.606Z,8.67
2022-09-07T22:26:46.524Z,8.67
2022-09-07T22:29:14.861Z,8.77
2022-09-07T22:31:43.846Z,9.00
2022-09-07T22:34:12.458Z,9.03
2022-09-07T22:36:43.132Z,8.60
2022-09-07T22:39:15.945Z,8.53
2022-09-07T22:41:47.871Z,8.60
2022-09-07T22:44:18.444Z,8.70
2022-09-07T22:46:48.333Z,8.70
2022-09-07T22:49:18.098Z,8.50
2022-09-07T22:51:47.148Z,8.80
2022-09-07T22:54:15.582Z,8.70
2022-09-07T22:56:44.078Z,8.90
2022-09-07T22:59:14.230Z,8.40
2022-09-07T23:01:43.422Z,8.50
2022-09-07T23:04:13.555Z,8.70
2022-09-07T23:06:43.654Z,9.10
2022-09-07T23:09:16.316Z,8.90
2022-09-07T23:11:45.852Z,8.70
2022-09-07T23:14:18.704Z,8.60
2022-09-07T23:16:48.059Z,8.90
2022-09-07T23:19:19.636Z,8.90
2022-09-07T23:21:49.198Z,9.13
2022-09-07T23:24:19.378Z,8.90
2022-09-07T23:26:48.582Z,9.17
2022-09-07T23:29:20.698Z,8.80
2022-09-07T23:31:49.402Z,8.70
2022-09-07T23:34:19.506Z,8.90
2022-09-07T23:36:47.782Z,9.10
2022-09-07T23:39:16.418Z,8.50
2022-09-07T23:41:44.862Z,8.73
2022-09-07T23:44:13.136Z,8.70
2022-09-07T23:46:42.933Z,8.77
2022-09-07T23:49:11.258Z,8.53
2022-09-07T23:51:39.548Z,8.83
2022-09-07T23:54:08.282Z,8.70
2022-09-07T23:56:37.923Z,8.90
2022-09-07T23:59:06.511Z,9.30
